createdAt,value
2022-09-17T00:01:05.050Z,96779.63
2022-09-17T00:03:34.191Z,96783.25
2022-09-17T00:06:01.750Z,96788.91
2022-09-17T00:08:28.527Z,96771.88
2022-09-17T00:10:54.971Z,96774.00
2022-09-17T00:13:21.638Z,96770.78
2022-09-17T00:15:48.408Z,96771.69
2022-09-17T00:18:15.062Z,96764.69
2022-09-17T00:20:44.046Z,96764.38
2022-09-17T00:23:11.356Z,96779.50
2022-09-17T00:25:39.938Z,96774.72
2022-09-17T00:28:06.349Z,96778.94
2022-09-17T00:30:32.789Z,96770.50
2022-09-17T00:32:59.282Z,96762.88
2022-09-17T00:35:27.065Z,96775.69
2022-09-17T00:37:53.976Z,96775.22
2022-09-17T00:40:20.747Z,96778.28
2022-09-17T00:42:47.222Z,96779.31
2022-09-17T00:45:14.160Z,96782.78
2022-09-17T00:47:45.883Z,96787.78
2022-09-17T00:50:19.512Z,96774.69
2022-09-17T00:52:50.668Z,96773.91
2022-09-17T00:55:23.136Z,96778.66
2022-09-17T00:57:52.041Z,96764.91
2022-09-17T01:00:19.460Z,96775.06
2022-09-17T01:02:45.917Z,96786.06
2022-09-17T01:05:13.786Z,96773.59
2022-09-17T01:07:57.517Z,96788.56
2022-09-17T01:10:35.970Z,96783.97
2022-09-17T01:13:17.266Z,96784.63
2022-09-17T01:15:52.910Z,96784.63
2022-09-17T01:18:28.955Z,96781.75
2022-09-17T01:21:28.583Z,96787.38
2022-09-17T01:24:17.407Z,96777.94
2022-09-17T01:26:49.890Z,96784.50
2022-09-17T01:29:39.141Z,96787.59
2022-09-17T01:32:15.466Z,96783.72
2022-09-17T01:34:53.782Z,96789.31
2022-09-17T01:37:55.285Z,96784.69
2022-09-17T01:40:28.509Z,96789.09
2022-09-17T01:43:21.469Z,96788.50
2022-09-17T01:45:53.504Z,96783.44
2022-09-17T01:48:23.761Z,96793.38
2022-09-17T01:51:06.423Z,96792.53
2022-09-17T01:53:58.959Z,96793.75
2022-09-17T01:56:31.940Z,96791.63
2022-09-17T01:59:04.605Z,96786.69
2022-09-17T02:01:33.981Z,96797.84
2022-09-17T02:04:09.526Z,96794.03
2022-09-17T02:06:44.364Z,96787.34
2022-09-17T02:09:16.781Z,96806.84
2022-09-17T02:11:50.544Z,96793.75
2022-09-17T02:14:23.119Z,96808.13
2022-09-17T02:16:55.351Z,96803.41
2022-09-17T02:19:27.674Z,96793.28
2022-09-17T02:22:21.752Z,96801.88
2022-09-17T02:25:01.150Z,96806.59
2022-09-17T02:28:06.023Z,96794.69
2022-09-17T02:30:32.440Z,96787.03
2022-09-17T02:33:01.255Z,96791.81
2022-09-17T02:35:27.604Z,96788.00
2022-09-17T02:37:54.015Z,96791.81
2022-09-17T02:40:27.835Z,96784.25
2022-09-17T02:43:27.481Z,96784.06
2022-09-17T02:46:09.947Z,96787.56
2022-09-17T02:49:10.314Z,96793.63
2022-09-17T02:51:53.454Z,96789.22
2022-09-17T02:54:29.123Z,96789.69
2022-09-17T02:57:19.780Z,96794.88
2022-09-17T03:00:03.130Z,96778.03
2022-09-17T03:02:38.558Z,96786.75
2022-09-17T03:05:07.394Z,96787.22
2022-09-17T03:07:33.960Z,96790.28
2022-09-17T03:10:00.677Z,96785.41
2022-09-17T03:12:27.376Z,96788.75
2022-09-17T03:14:53.760Z,96801.28
2022-09-17T03:17:20.086Z,96798.31
2022-09-17T03:19:46.457Z,96798.56
2022-09-17T03:22:12.805Z,96800.69
2022-09-17T03:24:39.277Z,96785.28
2022-09-17T03:27:05.720Z,96793.53
2022-09-17T03:29:32.056Z,96793.81
2022-09-17T03:31:58.519Z,96801.94
2022-09-17T03:34:24.874Z,96802.41
2022-09-17T03:36:51.246Z,96793.72
2022-09-17T03:39:17.625Z,96795.53
2022-09-17T03:41:43.937Z,96798.31
2022-09-17T03:44:13.202Z,96809.88
2022-09-17T03:46:39.581Z,96807.31
2022-09-17T03:49:05.944Z,96814.28
2022-09-17T03:51:32.279Z,96811.06
2022-09-17T03:53:58.662Z,96809.25
2022-09-17T03:56:26.602Z,96811.97
2022-09-17T03:58:57.570Z,96815.66
2022-09-17T04:01:23.980Z,96823.88
2022-09-17T04:03:50.360Z,96816.34
2022-09-17T04:06:16.675Z,96826.78
2022-09-17T04:08:43.611Z,96819.09
2022-09-17T04:11:10.094Z,96836.81
2022-09-17T04:13:36.623Z,96841.69
2022-09-17T04:16:03.423Z,96827.34
2022-09-17T04:18:29.875Z,96835.28
2022-09-17T04:20:56.454Z,96831.66
2022-09-17T04:23:23.378Z,96823.81
2022-09-17T04:25:49.710Z,96829.63
2022-09-17T04:28:16.406Z,96834.53
2022-09-17T04:30:45.625Z,96843.81
2022-09-17T04:33:11.959Z,96847.47
2022-09-17T04:35:38.301Z,96848.72
2022-09-17T04:38:04.684Z,96855.25
2022-09-17T04:40:31.172Z,96838.44
2022-09-17T04:42:59.763Z,96830.06
2022-09-17T04:45:26.527Z,96842.31
2022-09-17T04:47:52.866Z,96841.88
2022-09-17T04:50:19.907Z,96847.66
2022-09-17T04:52:46.696Z,96839.28
2022-09-17T04:55:13.904Z,96845.06
2022-09-17T05:01:27.340Z,96851.97
2022-09-17T05:03:53.856Z,96853.00
2022-09-17T05:06:20.183Z,96853.66
2022-09-17T05:08:46.525Z,96864.78
2022-09-17T05:11:13.427Z,96866.03
2022-09-17T05:13:39.774Z,96868.13
2022-09-17T05:16:06.131Z,96851.66
2022-09-17T05:18:32.524Z,96854.72
2022-09-17T05:24:39.759Z,96858.72
2022-09-17T05:27:07.310Z,96859.19
2022-09-17T05:29:33.716Z,96862.09
2022-09-17T05:32:00.040Z,96857.94
2022-09-17T05:34:26.407Z,96864.25
2022-09-17T05:36:52.745Z,96857.38
2022-09-17T05:39:21.304Z,96872.47
2022-09-17T05:41:47.624Z,96860.72
2022-09-17T05:44:17.996Z,96873.75
2022-09-17T05:50:25.949Z,96887.31
2022-09-17T05:56:39.127Z,96889.63
2022-09-17T05:59:05.544Z,96898.03
2022-09-17T06:01:32.259Z,96883.56
2022-09-17T06:03:58.705Z,96891.78
2022-09-17T06:06:25.083Z,96889.84
2022-09-17T06:08:51.507Z,96905.44
2022-09-17T06:11:17.850Z,96893.09
2022-09-17T06:13:44.283Z,96900.28
2022-09-17T06:16:10.752Z,96893.09
2022-09-17T06:18:37.171Z,96900.09
2022-09-17T06:21:05.478Z,96904.78
2022-09-17T06:23:35.214Z,96907.53
2022-09-17T06:26:02.796Z,96886.84
2022-09-17T06:28:29.662Z,96915.66
2022-09-17T06:31:00.887Z,96921.63
2022-09-17T06:33:27.830Z,96898.09
2022-09-17T06:36:01.718Z,96910.78
2022-09-17T06:38:29.024Z,96923.03
2022-09-17T06:40:56.124Z,96919.34
2022-09-17T06:43:23.100Z,96916.75
2022-09-17T06:45:53.431Z,96921.69
2022-09-17T06:48:20.919Z,96922.00
2022-09-17T06:50:47.389Z,96919.00
2022-09-17T06:53:14.052Z,96921.69
2022-09-17T06:55:40.782Z,96916.28
2022-09-17T06:58:07.192Z,96934.63
2022-09-17T07:00:33.927Z,96924.84
2022-09-17T07:03:01.228Z,96933.03
2022-09-17T07:05:29.895Z,96930.66
2022-09-17T07:07:56.335Z,96928.53
2022-09-17T07:10:26.834Z,96929.78
2022-09-17T07:12:54.582Z,96932.53
2022-09-17T07:15:21.447Z,96917.13
2022-09-17T07:17:48.177Z,96924.47
2022-09-17T07:20:15.402Z,96926.03
2022-09-17T07:22:41.792Z,96932.88
2022-09-17T07:25:08.807Z,96943.44
2022-09-17T07:27:35.144Z,96936.56
2022-09-17T07:30:01.727Z,96941.72
2022-09-17T07:32:30.732Z,96944.59
2022-09-17T07:34:57.314Z,96937.72
2022-09-17T07:37:23.742Z,96935.13
2022-09-17T07:39:50.352Z,96929.94
2022-09-17T07:42:16.709Z,96944.19
2022-09-17T07:44:43.114Z,96938.97
2022-09-17T07:47:09.959Z,96938.84
2022-09-17T07:49:36.300Z,96936.06
2022-09-17T07:52:06.273Z,96940.19
2022-09-17T07:54:37.301Z,96936.38
2022-09-17T07:57:04.685Z,96933.16
2022-09-17T07:59:31.275Z,96933.94
2022-09-17T08:01:57.689Z,96938.34
2022-09-17T08:04:24.090Z,96953.81
2022-09-17T08:06:50.440Z,96945.25
2022-09-17T08:09:18.485Z,96947.88
2022-09-17T08:11:55.483Z,96950.16
2022-09-17T08:14:27.011Z,96952.31
2022-09-17T08:16:55.701Z,96946.66
2022-09-17T08:19:22.193Z,96956.75
2022-09-17T08:21:48.598Z,96956.75
2022-09-17T08:24:14.931Z,96952.63
2022-09-17T08:26:41.738Z,96947.75
2022-09-17T08:29:08.153Z,96956.03
2022-09-17T08:31:34.694Z,96942.41
2022-09-17T08:34:01.263Z,96939.03
2022-09-17T08:36:27.868Z,96954.91
2022-09-17T08:38:56.113Z,96940.72
2022-09-17T08:41:41.432Z,96950.50
2022-09-17T08:44:21.257Z,96947.00
2022-09-17T08:46:51.903Z,96956.47
2022-09-17T08:49:30.874Z,96946.38
2022-09-17T08:52:30.110Z,96954.47
2022-09-17T08:55:18.293Z,96952.16
2022-09-17T08:57:48.672Z,96953.97
2022-09-17T09:00:23.409Z,96951.09
2022-09-17T09:03:28.174Z,96962.22
2022-09-17T09:05:57.956Z,96968.66
2022-09-17T09:08:35.350Z,96969.13
2022-09-17T09:11:04.760Z,96964.44
2022-09-17T09:13:40.496Z,96968.56
2022-09-17T09:16:14.306Z,96970.25
2022-09-17T09:18:44.241Z,96981.22
2022-09-17T09:21:28.257Z,97013.59
2022-09-17T09:24:26.237Z,97029.22
2022-09-17T09:27:12.479Z,97005.41
2022-09-17T09:29:53.976Z,97000.78
2022-09-17T09:32:28.693Z,97001.97
2022-09-17T09:34:57.636Z,96982.06
2022-09-17T09:37:28.049Z,96991.72
2022-09-17T09:40:00.717Z,96999.22
2022-09-17T09:42:34.614Z,96988.97
2022-09-17T09:45:12.366Z,96987.72
2022-09-17T09:47:57.462Z,96993.09
2022-09-17T09:51:04.727Z,96998.94
2022-09-17T09:54:01.847Z,96998.63
2022-09-17T09:56:46.731Z,97002.31
2022-09-17T09:59:13.306Z,97006.44
2022-09-17T10:01:42.760Z,97002.50
2022-09-17T10:04:23.009Z,97008.13
2022-09-17T10:06:52.141Z,97007.38
2022-09-17T10:09:21.914Z,97005.13
2022-09-17T10:12:03.312Z,97010.50
2022-09-17T10:14:34.156Z,97009.00
2022-09-17T10:17:23.014Z,97000.31
2022-09-17T10:20:06.037Z,97000.16
2022-09-17T10:22:35.019Z,97000.34
2022-09-17T10:25:03.640Z,96988.00
2022-09-17T10:27:31.046Z,96989.22
2022-09-17T10:30:09.561Z,96992.63
2022-09-17T10:32:35.976Z,96983.75
2022-09-17T10:35:23.692Z,96978.28
2022-09-17T10:37:52.432Z,96983.84
2022-09-17T10:40:18.850Z,96977.44
2022-09-17T10:42:49.755Z,96966.41
2022-09-17T10:45:27.431Z,96972.22
2022-09-17T10:47:55.945Z,96968.09
2022-09-17T10:50:34.362Z,96975.56
2022-09-17T10:53:04.403Z,96979.38
2022-09-17T10:55:38.336Z,96979.09
2022-09-17T10:58:07.767Z,96979.38
2022-09-17T11:01:11.880Z,96974.59
2022-09-17T11:03:56.297Z,96979.47
2022-09-17T11:06:37.871Z,96979.91
2022-09-17T11:09:12.814Z,96966.44
2022-09-17T11:11:46.802Z,96965.63
2022-09-17T11:14:49.353Z,96974.69
2022-09-17T11:17:43.117Z,96956.88
2022-09-17T11:24:06.043Z,96965.91
2022-09-17T11:26:59.838Z,96961.34
2022-09-17T11:29:53.979Z,96966.72
2022-09-17T11:32:38.634Z,96962.31
2022-09-17T11:35:15.534Z,96960.13
2022-09-17T11:38:17.928Z,96948.16
2022-09-17T11:40:50.094Z,96936.69
2022-09-17T11:43:37.492Z,96945.19
2022-09-17T11:46:22.704Z,96954.03
2022-09-17T11:48:54.967Z,96946.03
2022-09-17T11:51:36.700Z,96953.75
2022-09-17T11:54:06.665Z,96943.03
2022-09-17T11:56:43.451Z,96933.47
2022-09-17T11:59:43.364Z,96946.31
2022-09-17T12:02:09.664Z,96945.19
2022-09-17T12:04:54.678Z,96937.41
2022-09-17T12:07:30.146Z,96942.63
2022-09-17T12:10:03.428Z,96947.50
2022-09-17T12:12:50.071Z,96937.91
2022-09-17T12:15:26.890Z,96924.72
2022-09-17T12:18:32.704Z,96944.88
2022-09-17T12:21:02.462Z,96924.25
2022-09-17T12:23:44.695Z,96924.50
2022-09-17T12:26:46.631Z,96928.31
2022-09-17T12:29:34.364Z,96927.22
2022-09-17T12:32:10.875Z,96923.41
2022-09-17T12:34:53.425Z,96927.31
2022-09-17T12:37:31.813Z,96928.41
2022-09-17T12:40:15.122Z,96934.22
2022-09-17T12:42:47.962Z,96930.50
2022-09-17T12:45:19.623Z,96937.94
2022-09-17T12:48:12.328Z,96941.56
2022-09-17T12:50:46.364Z,96951.53
2022-09-17T12:53:41.326Z,96958.22
2022-09-17T12:56:25.988Z,96965.34
2022-09-17T12:59:15.947Z,96959.06
2022-09-17T13:01:55.806Z,96961.88
2022-09-17T13:04:59.969Z,96959.00
2022-09-17T13:07:41.852Z,96957.34
2022-09-17T13:10:40.783Z,96944.28
2022-09-17T13:13:07.040Z,96936.59
2022-09-17T13:19:33.400Z,96920.66
2022-09-17T13:22:07.334Z,96931.69
2022-09-17T13:24:34.890Z,96920.22
2022-09-17T13:27:03.838Z,96924.28
2022-09-17T13:29:45.180Z,96924.88
2022-09-17T13:32:33.613Z,96905.28
2022-09-17T13:35:17.957Z,96911.63
2022-09-17T13:37:53.620Z,96911.94
2022-09-17T13:40:23.208Z,96895.84
2022-09-17T13:42:55.430Z,96911.63
2022-09-17T13:45:23.628Z,96905.81
2022-09-17T13:47:55.871Z,96912.94
2022-09-17T13:50:32.381Z,96913.56
2022-09-17T13:53:16.888Z,96915.25
2022-09-17T13:55:58.603Z,96911.63
2022-09-17T13:58:28.985Z,96913.41
2022-09-17T14:01:05.494Z,96903.75
2022-09-17T14:03:34.025Z,96910.91
2022-09-17T14:06:09.522Z,96917.91
2022-09-17T14:08:45.145Z,96910.72
2022-09-17T14:11:23.496Z,96921.66
2022-09-17T14:13:55.175Z,96911.81
2022-09-17T14:16:42.479Z,96938.56
2022-09-17T14:19:30.363Z,96923.13
2022-09-17T14:22:02.476Z,96920.81
2022-09-17T14:24:45.878Z,96915.50
2022-09-17T14:27:30.428Z,96923.97
2022-09-17T14:30:03.182Z,96930.63
2022-09-17T14:32:54.233Z,96926.44
2022-09-17T14:35:50.738Z,96932.03
2022-09-17T14:38:39.672Z,96946.81
2022-09-17T14:41:17.804Z,96946.22
2022-09-17T14:43:49.842Z,96957.84
2022-09-17T14:46:21.939Z,96936.91
2022-09-17T14:48:48.713Z,96936.25
2022-09-17T14:51:18.014Z,96944.44
2022-09-17T14:54:05.595Z,96945.72
2022-09-17T14:56:42.521Z,96913.78
2022-09-17T14:59:20.223Z,96928.19
2022-09-17T15:01:48.065Z,96920.84
2022-09-17T15:04:14.371Z,96933.56
2022-09-17T15:06:42.418Z,96937.41
2022-09-17T15:09:25.460Z,96941.03
2022-09-17T15:11:55.540Z,96932.66
2022-09-17T15:14:27.554Z,96936.28
2022-09-17T15:16:56.271Z,96923.47
2022-09-17T15:19:31.003Z,96924.72
2022-09-17T15:21:58.223Z,96933.91
2022-09-17T15:25:01.784Z,96933.16
2022-09-17T15:27:36.948Z,96929.19
2022-09-17T15:30:09.303Z,96939.75
2022-09-17T15:32:36.207Z,96929.00
2022-09-17T15:35:32.968Z,96928.63
2022-09-17T15:38:22.407Z,96925.16
2022-09-17T15:40:50.554Z,96931.78
2022-09-17T15:43:35.540Z,96935.13
2022-09-17T15:46:29.566Z,96936.03
2022-09-17T15:49:02.074Z,96944.88
2022-09-17T15:51:38.825Z,96940.00
2022-09-17T15:54:06.689Z,96937.91
2022-09-17T15:56:35.578Z,96930.28
2022-09-17T15:59:26.449Z,96949.09
2022-09-17T16:01:55.979Z,96949.59
2022-09-17T16:04:27.920Z,96941.56
2022-09-17T16:06:58.613Z,96939.91
2022-09-17T16:09:52.190Z,96938.97
2022-09-17T16:12:23.561Z,96925.38
2022-09-17T16:14:57.664Z,96933.19
2022-09-17T16:17:34.315Z,96939.16
2022-09-17T16:20:06.481Z,96924.66
2022-09-17T16:22:33.163Z,96938.59
2022-09-17T16:24:59.504Z,96933.81
2022-09-17T16:27:30.140Z,96937.66
2022-09-17T16:30:02.858Z,96935.34
2022-09-17T16:32:29.176Z,96944.84
2022-09-17T16:34:55.906Z,96941.91
2022-09-17T16:37:22.280Z,96951.41
2022-09-17T16:39:48.954Z,96938.56
2022-09-17T16:42:15.288Z,96947.88
2022-09-17T16:44:41.611Z,96947.88
2022-09-17T16:47:07.956Z,96945.13
2022-09-17T16:49:34.526Z,96949.72
2022-09-17T16:52:01.006Z,96954.91
2022-09-17T16:54:27.518Z,96948.66
2022-09-17T16:56:53.930Z,96977.09
2022-09-17T16:59:20.248Z,96970.63
2022-09-17T17:01:49.992Z,96983.03
2022-09-17T17:04:16.643Z,96982.91
2022-09-17T17:06:43.034Z,96993.59
2022-09-17T17:09:09.876Z,96995.88
2022-09-17T17:11:36.218Z,96998.03
2022-09-17T17:14:05.171Z,96992.38
2022-09-17T17:16:31.613Z,96995.88
2022-09-17T17:18:57.983Z,97004.00
2022-09-17T17:21:24.437Z,97004.00
2022-09-17T17:23:50.775Z,97011.16
2022-09-17T17:26:17.371Z,97007.03
2022-09-17T17:28:44.105Z,96997.53
2022-09-17T17:31:11.672Z,97001.06
2022-09-17T17:33:38.093Z,97019.69
2022-09-17T17:36:08.219Z,97017.22
2022-09-17T17:38:35.958Z,97026.25
2022-09-17T17:41:13.677Z,97029.69
2022-09-17T17:43:40.795Z,97024.31
2022-09-17T17:46:09.506Z,97045.34
2022-09-17T17:48:36.445Z,97036.59
2022-09-17T17:51:05.243Z,97010.81
2022-09-17T17:53:31.923Z,96994.78
2022-09-17T17:56:00.550Z,96995.75
2022-09-17T17:58:27.349Z,97007.09
2022-09-17T18:00:53.812Z,97001.84
2022-09-17T18:03:24.774Z,96999.34
2022-09-17T18:05:58.468Z,96986.94
2022-09-17T18:08:25.371Z,96988.81
2022-09-17T18:10:56.565Z,96994.22
2022-09-17T18:13:23.923Z,97004.13
2022-09-17T18:15:55.421Z,97000.88
2022-09-17T18:18:29.949Z,96997.66
2022-09-17T18:21:00.603Z,97023.88
2022-09-17T18:23:27.436Z,97018.44
2022-09-17T18:25:58.284Z,97024.81
2022-09-17T18:28:24.888Z,97011.59
2022-09-17T18:30:51.350Z,97027.09
2022-09-17T18:33:20.081Z,97039.72
2022-09-17T18:35:47.377Z,97041.72
2022-09-17T18:38:15.437Z,97042.31
2022-09-17T18:40:42.633Z,97035.22
2022-09-17T18:43:09.336Z,97042.22
2022-09-17T18:45:35.809Z,97039.81
2022-09-17T18:48:05.109Z,97052.69
2022-09-17T18:50:31.555Z,97078.22
2022-09-17T18:52:58.089Z,97075.91
2022-09-17T18:55:24.525Z,97066.53
2022-09-17T18:57:52.069Z,97082.25
2022-09-17T19:00:20.367Z,97081.19
2022-09-17T19:02:50.180Z,97084.34
2022-09-17T19:05:17.413Z,97086.38
2022-09-17T19:07:47.402Z,97087.41
2022-09-17T19:10:15.097Z,97077.66
2022-09-17T19:12:42.258Z,97090.78
2022-09-17T19:15:09.929Z,97088.88
2022-09-17T19:17:36.463Z,97117.00
2022-09-17T19:20:04.013Z,97105.56
2022-09-17T19:22:31.329Z,97110.00
2022-09-17T19:24:57.667Z,97097.78
2022-09-17T19:27:24.030Z,97086.75
2022-09-17T19:29:50.425Z,97091.91
2022-09-17T19:32:16.796Z,97104.69
2022-09-17T19:34:43.195Z,97106.50
2022-09-17T19:37:09.558Z,97104.88
2022-09-17T19:39:36.037Z,97096.72
2022-09-17T19:42:02.406Z,97106.78
2022-09-17T19:44:29.542Z,97107.19
2022-09-17T19:50:53.803Z,97096.47
2022-09-17T19:53:20.944Z,97102.50
2022-09-17T19:55:47.375Z,97089.66
2022-09-17T19:58:14.543Z,97105.84
2022-09-17T20:00:40.886Z,97114.19
2022-09-17T20:03:08.727Z,97103.38
2022-09-17T20:05:35.449Z,97094.72
2022-09-17T20:08:03.255Z,97117.47
2022-09-17T20:10:32.360Z,97097.97
2022-09-17T20:12:59.026Z,97109.31
2022-09-17T20:15:25.404Z,97113.31
2022-09-17T20:17:52.062Z,97113.06
2022-09-17T20:20:18.423Z,97094.94
2022-09-17T20:22:44.762Z,97089.75
2022-09-17T20:25:11.093Z,97105.97
2022-09-17T20:27:37.446Z,97081.97
2022-09-17T20:30:03.950Z,97106.91
2022-09-17T20:32:30.299Z,97103.56
2022-09-17T20:34:56.820Z,97100.88
2022-09-17T20:37:55.401Z,97094.06
2022-09-17T20:40:09.927Z,97106.22
2022-09-17T20:42:36.293Z,97105.38
2022-09-17T20:45:02.633Z,97101.72
2022-09-17T20:47:28.985Z,97093.69
2022-09-17T20:49:55.452Z,97101.34
2022-09-17T20:52:21.777Z,97103.16
2022-09-17T20:54:48.119Z,97107.56
2022-09-17T20:57:14.445Z,97107.47
2022-09-17T20:59:53.190Z,97106.63
2022-09-17T21:02:22.083Z,97111.38
2022-09-17T21:04:51.360Z,97095.94
2022-09-17T21:07:17.877Z,97103.91
2022-09-17T21:09:44.469Z,97095.47
2022-09-17T21:12:11.732Z,97098.44
2022-09-17T21:14:38.600Z,97109.50
2022-09-17T21:17:05.491Z,97097.78
2022-09-17T21:19:31.863Z,97087.13
2022-09-17T21:21:58.425Z,97107.19
2022-09-17T21:24:24.776Z,97097.50
2022-09-17T21:26:53.168Z,97104.50
2022-09-17T21:29:19.631Z,97091.25
2022-09-17T21:31:46.027Z,97085.69
2022-09-17T21:34:13.565Z,97098.53
2022-09-17T21:36:41.529Z,97109.78
2022-09-17T21:39:14.620Z,97095.06
2022-09-17T21:41:42.924Z,97114.00
2022-09-17T21:44:11.590Z,97104.66
2022-09-17T21:46:38.771Z,97108.91
2022-09-17T21:49:05.717Z,97113.53
2022-09-17T21:51:37.592Z,97113.22
2022-09-17T21:54:16.703Z,97106.31
2022-09-17T21:56:44.670Z,97111.50
2022-09-17T21:59:13.581Z,97120.53
2022-09-17T22:01:46.643Z,97119.38
2022-09-17T22:04:16.364Z,97129.81
2022-09-17T22:06:44.086Z,97124.06
2022-09-17T22:09:17.468Z,97132.75
2022-09-17T22:11:43.822Z,97128.53
2022-09-17T22:14:12.795Z,97124.63
2022-09-17T22:16:41.730Z,97133.16
2022-09-17T22:19:09.670Z,97116.66
2022-09-17T22:21:39.107Z,97116.84
2022-09-17T22:24:06.313Z,97121.94
2022-09-17T22:26:35.369Z,97119.44
2022-09-17T22:29:03.996Z,97116.25
2022-09-17T22:31:30.523Z,97122.41
2022-09-17T22:47:47.384Z,97100.16
2022-09-17T22:50:13.796Z,97118.91
2022-09-17T22:52:40.141Z,97115.19
2022-09-17T22:55:06.623Z,97103.59
2022-09-17T22:57:32.991Z,97108.53
2022-09-17T22:59:59.345Z,97108.31
2022-09-17T23:02:25.745Z,97111.38
2022-09-17T23:04:52.731Z,97116.25
2022-09-17T23:07:19.097Z,97114.44
2022-09-17T23:09:45.441Z,97118.25
2022-09-17T23:12:11.875Z,97103.00
2022-09-17T23:14:38.238Z,97100.44
2022-09-17T23:17:04.602Z,97109.34
2022-09-17T23:19:30.960Z,97115.13
2022-09-17T23:21:57.300Z,97117.50
2022-09-17T23:24:23.780Z,97116.34
2022-09-17T23:26:50.418Z,97103.50
2022-09-17T23:29:17.236Z,97117.44
2022-09-17T23:31:43.633Z,97107.75
2022-09-17T23:34:09.995Z,97104.38
2022-09-17T23:36:38.629Z,97107.81
2022-09-17T23:39:07.398Z,97109.16
2022-09-17T23:41:42.371Z,97101.50
2022-09-17T23:44:14.789Z,97105.91
2022-09-17T23:46:42.344Z,97099.78
2022-09-17T23:49:11.479Z,97100.16
2022-09-17T23:51:37.852Z,97115.31
2022-09-17T23:54:07.467Z,97099.22
2022-09-17T23:56:34.871Z,97101.69
2022-09-17T23:59:02.222Z,97103.69
